sensor_id;sensor_type;location;lat;lon;timestamp;P1;durP1;ratioP1;P2;durP2;ratioP2
17365;SDS011;8800;50.118;9.900;2023-02-28T00:01:38;5.05;;;2.60;;
17365;SDS011;8800;50.118;9.900;2023-02-28T00:04:04;7.15;;;3.00;;
17365;SDS011;8800;50.118;9.900;2023-02-28T00:06:31;5.72;;;3.08;;
17365;SDS011;8800;50.118;9.900;2023-02-28T00:08:57;7.40;;;2.90;;
17365;SDS011;8800;50.118;9.900;2023-02-28T00:11:23;3.95;;;2.60;;
17365;SDS011;8800;50.118;9.900;2023-02-28T00:13:51;4.72;;;2.90;;
17365;SDS011;8800;50.118;9.900;2023-02-28T00:16:19;6.72;;;2.65;;
17365;SDS011;8800;50.118;9.900;2023-02-28T00:18:45;6.22;;;2.97;;
17365;SDS011;8800;50.118;9.900;2023-02-28T00:21:12;5.82;;;2.92;;
17365;SDS011;8800;50.118;9.900;2023-02-28T00:23:39;4.60;;;2.20;;
17365;SDS011;8800;50.118;9.900;2023-02-28T00:26:05;6.20;;;2.45;;
17365;SDS011;8800;50.118;9.900;2023-02-28T00:28:32;5.72;;;2.60;;
17365;SDS011;8800;50.118;9.900;2023-02-28T00:31:00;5.00;;;2.58;;
17365;SDS011;8800;50.118;9.900;2023-02-28T00:33:26;5.03;;;2.72;;
17365;SDS011;8800;50.118;9.900;2023-02-28T00:36:00;5.07;;;2.58;;
17365;SDS011;8800;50.118;9.900;2023-02-28T00:38:27;4.20;;;2.60;;
17365;SDS011;8800;50.118;9.900;2023-02-28T00:40:54;4.57;;;2.25;;
17365;SDS011;8800;50.118;9.900;2023-02-28T00:43:20;5.47;;;2.70;;
17365;SDS011;8800;50.118;9.900;2023-02-28T00:45:46;6.38;;;2.58;;
17365;SDS011;8800;50.118;9.900;2023-02-28T00:48:14;6.07;;;2.50;;
17365;SDS011;8800;50.118;9.900;2023-02-28T00:50:41;6.05;;;2.30;;
17365;SDS011;8800;50.118;9.900;2023-02-28T00:53:07;5.88;;;2.42;;
17365;SDS011;8800;50.118;9.900;2023-02-28T00:55:34;5.00;;;2.47;;
17365;SDS011;8800;50.118;9.900;2023-02-28T00:58:00;5.05;;;2.58;;
17365;SDS011;8800;50.118;9.900;2023-02-28T01:00:26;5.65;;;2.58;;
17365;SDS011;8800;50.118;9.900;2023-02-28T01:02:53;6.25;;;2.60;;
17365;SDS011;8800;50.118;9.900;2023-02-28T01:05:20;6.95;;;2.78;;
17365;SDS011;8800;50.118;9.900;2023-02-28T01:07:47;7.45;;;2.60;;
17365;SDS011;8800;50.118;9.900;2023-02-28T01:10:13;5.53;;;2.50;;
17365;SDS011;8800;50.118;9.900;2023-02-28T01:12:40;3.78;;;2.38;;
17365;SDS011;8800;50.118;9.900;2023-02-28T01:15:06;5.18;;;2.58;;
17365;SDS011;8800;50.118;9.900;2023-02-28T01:17:33;6.47;;;2.92;;
17365;SDS011;8800;50.118;9.900;2023-02-28T01:19:59;5.80;;;2.72;;
17365;SDS011;8800;50.118;9.900;2023-02-28T01:22:27;7.25;;;2.88;;
17365;SDS011;8800;50.118;9.900;2023-02-28T01:24:53;6.25;;;2.60;;
17365;SDS011;8800;50.118;9.900;2023-02-28T01:27:20;7.53;;;2.97;;
17365;SDS011;8800;50.118;9.900;2023-02-28T01:29:46;5.70;;;3.22;;
17365;SDS011;8800;50.118;9.900;2023-02-28T01:32:12;5.68;;;2.90;;
17365;SDS011;8800;50.118;9.900;2023-02-28T01:34:39;6.68;;;3.55;;
17365;SDS011;8800;50.118;9.900;2023-02-28T01:37:05;6.22;;;2.92;;
17365;SDS011;8800;50.118;9.900;2023-02-28T01:39:33;53.63;;;22.63;;
17365;SDS011;8800;50.118;9.900;2023-02-28T01:41:59;22.95;;;9.57;;
17365;SDS011;8800;50.118;9.900;2023-02-28T01:47:12;6.25;;;3.58;;
17365;SDS011;8800;50.118;9.900;2023-02-28T01:49:39;6.22;;;2.92;;
17365;SDS011;8800;50.118;9.900;2023-02-28T01:52:05;6.03;;;3.20;;
17365;SDS011;8800;50.118;9.900;2023-02-28T01:54:34;4.95;;;2.88;;
17365;SDS011;8800;50.118;9.900;2023-02-28T01:57:02;6.10;;;3.13;;
17365;SDS011;8800;50.118;9.900;2023-02-28T01:59:31;4.38;;;2.80;;
17365;SDS011;8800;50.118;9.900;2023-02-28T02:01:59;5.63;;;2.72;;
17365;SDS011;8800;50.118;9.900;2023-02-28T02:04:27;6.40;;;2.60;;
17365;SDS011;8800;50.118;9.900;2023-02-28T02:06:58;5.75;;;2.78;;
17365;SDS011;8800;50.118;9.900;2023-02-28T02:09:24;5.45;;;2.83;;
17365;SDS011;8800;50.118;9.900;2023-02-28T02:11:52;5.93;;;3.38;;
17365;SDS011;8800;50.118;9.900;2023-02-28T02:17:07;4.82;;;2.70;;
17365;SDS011;8800;50.118;9.900;2023-02-28T02:22:31;5.32;;;2.80;;
17365;SDS011;8800;50.118;9.900;2023-02-28T02:25:20;4.95;;;3.00;;
17365;SDS011;8800;50.118;9.900;2023-02-28T02:30:41;6.07;;;3.05;;
17365;SDS011;8800;50.118;9.900;2023-02-28T02:33:13;5.38;;;2.80;;
17365;SDS011;8800;50.118;9.900;2023-02-28T02:35:42;4.85;;;2.75;;
17365;SDS011;8800;50.118;9.900;2023-02-28T02:38:13;5.43;;;2.83;;
17365;SDS011;8800;50.118;9.900;2023-02-28T02:40:43;5.00;;;2.90;;
17365;SDS011;8800;50.118;9.900;2023-02-28T02:43:11;5.20;;;3.08;;
17365;SDS011;8800;50.118;9.900;2023-02-28T02:45:40;7.25;;;2.92;;
17365;SDS011;8800;50.118;9.900;2023-02-28T02:48:09;6.90;;;3.38;;
17365;SDS011;8800;50.118;9.900;2023-02-28T02:50:37;5.78;;;2.88;;
17365;SDS011;8800;50.118;9.900;2023-02-28T02:53:05;5.85;;;3.28;;
17365;SDS011;8800;50.118;9.900;2023-02-28T02:55:33;5.13;;;3.25;;
17365;SDS011;8800;50.118;9.900;2023-02-28T02:58:02;8.23;;;3.17;;
17365;SDS011;8800;50.118;9.900;2023-02-28T03:00:31;6.75;;;3.13;;
17365;SDS011;8800;50.118;9.900;2023-02-28T03:02:59;5.72;;;3.17;;
17365;SDS011;8800;50.118;9.900;2023-02-28T03:05:26;8.77;;;3.72;;
17365;SDS011;8800;50.118;9.900;2023-02-28T03:07:53;4.97;;;3.13;;
17365;SDS011;8800;50.118;9.900;2023-02-28T03:13:26;5.68;;;2.92;;
17365;SDS011;8800;50.118;9.900;2023-02-28T03:15:58;7.65;;;2.55;;
17365;SDS011;8800;50.118;9.900;2023-02-28T03:18:29;5.85;;;2.92;;
17365;SDS011;8800;50.118;9.900;2023-02-28T03:20:59;6.38;;;2.83;;
17365;SDS011;8800;50.118;9.900;2023-02-28T03:23:29;6.82;;;3.22;;
17365;SDS011;8800;50.118;9.900;2023-02-28T03:25:59;4.60;;;2.80;;
17365;SDS011;8800;50.118;9.900;2023-02-28T03:28:30;5.05;;;3.03;;
17365;SDS011;8800;50.118;9.900;2023-02-28T03:30:59;5.07;;;2.92;;
17365;SDS011;8800;50.118;9.900;2023-02-28T03:33:28;7.32;;;3.00;;
17365;SDS011;8800;50.118;9.900;2023-02-28T03:35:57;4.47;;;2.78;;
17365;SDS011;8800;50.118;9.900;2023-02-28T03:38:27;5.68;;;3.10;;
17365;SDS011;8800;50.118;9.900;2023-02-28T03:40:55;4.63;;;2.83;;
17365;SDS011;8800;50.118;9.900;2023-02-28T03:43:25;4.75;;;2.70;;
17365;SDS011;8800;50.118;9.900;2023-02-28T03:45:54;5.85;;;2.75;;
17365;SDS011;8800;50.118;9.900;2023-02-28T03:48:22;5.10;;;2.70;;
17365;SDS011;8800;50.118;9.900;2023-02-28T03:50:51;6.72;;;3.30;;
17365;SDS011;8800;50.118;9.900;2023-02-28T03:53:21;6.50;;;2.72;;
17365;SDS011;8800;50.118;9.900;2023-02-28T03:55:49;6.00;;;2.90;;
17365;SDS011;8800;50.118;9.900;2023-02-28T03:58:19;5.25;;;3.10;;
17365;SDS011;8800;50.118;9.900;2023-02-28T04:00:47;4.78;;;2.72;;
17365;SDS011;8800;50.118;9.900;2023-02-28T04:03:16;4.45;;;2.33;;
17365;SDS011;8800;50.118;9.900;2023-02-28T04:05:47;5.00;;;2.70;;
17365;SDS011;8800;50.118;9.900;2023-02-28T04:08:14;5.30;;;2.58;;
17365;SDS011;8800;50.118;9.900;2023-02-28T04:10:41;6.22;;;2.80;;
17365;SDS011;8800;50.118;9.900;2023-02-28T04:13:10;8.77;;;2.70;;
17365;SDS011;8800;50.118;9.900;2023-02-28T04:15:36;4.07;;;2.35;;
17365;SDS011;8800;50.118;9.900;2023-02-28T04:18:03;8.00;;;3.25;;
17365;SDS011;8800;50.118;9.900;2023-02-28T04:20:31;16.52;;;5.65;;
17365;SDS011;8800;50.118;9.900;2023-02-28T04:22:57;32.92;;;10.80;;
17365;SDS011;8800;50.118;9.900;2023-02-28T04:25:23;43.58;;;10.82;;
17365;SDS011;8800;50.118;9.900;2023-02-28T04:27:50;27.85;;;8.75;;
17365;SDS011;8800;50.118;9.900;2023-02-28T04:30:16;16.88;;;5.93;;
17365;SDS011;8800;50.118;9.900;2023-02-28T04:32:43;9.05;;;3.70;;
17365;SDS011;8800;50.118;9.900;2023-02-28T04:35:09;7.30;;;3.30;;
17365;SDS011;8800;50.118;9.900;2023-02-28T04:37:37;6.55;;;2.97;;
17365;SDS011;8800;50.118;9.900;2023-02-28T04:40:04;4.90;;;2.55;;
17365;SDS011;8800;50.118;9.900;2023-02-28T04:42:30;5.45;;;2.80;;
17365;SDS011;8800;50.118;9.900;2023-02-28T04:45:00;5.75;;;2.97;;
17365;SDS011;8800;50.118;9.900;2023-02-28T04:47:27;5.55;;;2.95;;
17365;SDS011;8800;50.118;9.900;2023-02-28T04:49:53;6.15;;;3.35;;
17365;SDS011;8800;50.118;9.900;2023-02-28T04:52:20;7.45;;;3.22;;
17365;SDS011;8800;50.118;9.900;2023-02-28T04:54:47;5.25;;;3.25;;
17365;SDS011;8800;50.118;9.900;2023-02-28T04:57:14;6.57;;;3.33;;
17365;SDS011;8800;50.118;9.900;2023-02-28T04:59:41;6.55;;;3.22;;
17365;SDS011;8800;50.118;9.900;2023-02-28T05:02:07;5.93;;;2.80;;
17365;SDS011;8800;50.118;9.900;2023-02-28T05:04:33;7.45;;;3.08;;
17365;SDS011;8800;50.118;9.900;2023-02-28T05:07:00;6.43;;;3.10;;
17365;SDS011;8800;50.118;9.900;2023-02-28T05:09:27;7.65;;;3.20;;
17365;SDS011;8800;50.118;9.900;2023-02-28T05:11:54;6.00;;;3.88;;
17365;SDS011;8800;50.118;9.900;2023-02-28T05:14:21;6.05;;;3.00;;
17365;SDS011;8800;50.118;9.900;2023-02-28T05:16:47;6.63;;;3.28;;
17365;SDS011;8800;50.118;9.900;2023-02-28T05:19:14;7.10;;;3.17;;
17365;SDS011;8800;50.118;9.900;2023-02-28T05:21:41;7.65;;;3.80;;
17365;SDS011;8800;50.118;9.900;2023-02-28T05:24:09;6.72;;;3.30;;
17365;SDS011;8800;50.118;9.900;2023-02-28T05:26:36;6.07;;;3.30;;
17365;SDS011;8800;50.118;9.900;2023-02-28T05:29:04;5.78;;;3.40;;
17365;SDS011;8800;50.118;9.900;2023-02-28T05:31:31;5.78;;;3.20;;
17365;SDS011;8800;50.118;9.900;2023-02-28T05:33:57;7.90;;;4.20;;
17365;SDS011;8800;50.118;9.900;2023-02-28T05:36:24;9.20;;;4.43;;
17365;SDS011;8800;50.118;9.900;2023-02-28T05:38:50;9.10;;;4.82;;
17365;SDS011;8800;50.118;9.900;2023-02-28T05:41:17;11.70;;;6.25;;
17365;SDS011;8800;50.118;9.900;2023-02-28T05:43:44;11.13;;;5.72;;
17365;SDS011;8800;50.118;9.900;2023-02-28T05:46:12;11.63;;;6.03;;
17365;SDS011;8800;50.118;9.900;2023-02-28T05:48:39;11.93;;;6.35;;
17365;SDS011;8800;50.118;9.900;2023-02-28T05:51:06;14.63;;;6.40;;
17365;SDS011;8800;50.118;9.900;2023-02-28T05:53:33;11.30;;;5.45;;
17365;SDS011;8800;50.118;9.900;2023-02-28T05:55:59;13.82;;;6.13;;
17365;SDS011;8800;50.118;9.900;2023-02-28T05:58:26;6.60;;;3.60;;
17365;SDS011;8800;50.118;9.900;2023-02-28T06:00:55;6.47;;;3.33;;
17365;SDS011;8800;50.118;9.900;2023-02-28T06:03:23;29.38;;;8.35;;
17365;SDS011;8800;50.118;9.900;2023-02-28T06:05:49;39.40;;;12.55;;
17365;SDS011;8800;50.118;9.900;2023-02-28T06:08:16;38.25;;;10.45;;
17365;SDS011;8800;50.118;9.900;2023-02-28T06:10:43;20.58;;;6.80;;
17365;SDS011;8800;50.118;9.900;2023-02-28T06:13:10;24.38;;;7.72;;
17365;SDS011;8800;50.118;9.900;2023-02-28T06:15:36;72.40;;;19.05;;
17365;SDS011;8800;50.118;9.900;2023-02-28T06:18:03;44.63;;;13.32;;
17365;SDS011;8800;50.118;9.900;2023-02-28T06:20:31;24.52;;;8.48;;
17365;SDS011;8800;50.118;9.900;2023-02-28T06:22:58;17.27;;;6.30;;
17365;SDS011;8800;50.118;9.900;2023-02-28T06:25:25;10.10;;;4.32;;
17365;SDS011;8800;50.118;9.900;2023-02-28T06:27:51;8.70;;;3.78;;
17365;SDS011;8800;50.118;9.900;2023-02-28T06:30:18;11.40;;;4.45;;
17365;SDS011;8800;50.118;9.900;2023-02-28T06:32:51;7.97;;;3.58;;
17365;SDS011;8800;50.118;9.900;2023-02-28T06:35:18;10.95;;;3.72;;
17365;SDS011;8800;50.118;9.900;2023-02-28T06:37:46;7.72;;;3.63;;
17365;SDS011;8800;50.118;9.900;2023-02-28T06:40:13;7.28;;;3.40;;
17365;SDS011;8800;50.118;9.900;2023-02-28T06:42:40;5.65;;;3.38;;
17365;SDS011;8800;50.118;9.900;2023-02-28T06:45:06;7.38;;;3.38;;
17365;SDS011;8800;50.118;9.900;2023-02-28T06:47:34;8.52;;;3.28;;
17365;SDS011;8800;50.118;9.900;2023-02-28T06:50:00;5.72;;;2.90;;
17365;SDS011;8800;50.118;9.900;2023-02-28T06:52:27;6.97;;;3.13;;
17365;SDS011;8800;50.118;9.900;2023-02-28T06:54:54;5.65;;;3.13;;
17365;SDS011;8800;50.118;9.900;2023-02-28T06:57:24;6.85;;;3.83;;
17365;SDS011;8800;50.118;9.900;2023-02-28T06:59:51;8.45;;;3.30;;
17365;SDS011;8800;50.118;9.900;2023-02-28T07:02:17;6.47;;;3.15;;
17365;SDS011;8800;50.118;9.900;2023-02-28T07:04:44;8.05;;;3.15;;
17365;SDS011;8800;50.118;9.900;2023-02-28T07:07:10;7.43;;;3.63;;
17365;SDS011;8800;50.118;9.900;2023-02-28T07:09:36;8.18;;;3.83;;
17365;SDS011;8800;50.118;9.900;2023-02-28T07:12:04;10.38;;;3.08;;
17365;SDS011;8800;50.118;9.900;2023-02-28T07:14:31;7.90;;;3.58;;
17365;SDS011;8800;50.118;9.900;2023-02-28T07:16:57;7.25;;;3.60;;
17365;SDS011;8800;50.118;9.900;2023-02-28T07:19:24;7.43;;;3.97;;
17365;SDS011;8800;50.118;9.900;2023-02-28T07:21:50;8.27;;;3.92;;
17365;SDS011;8800;50.118;9.900;2023-02-28T07:24:16;8.68;;;3.58;;
17365;SDS011;8800;50.118;9.900;2023-02-28T07:26:43;9.85;;;4.15;;
17365;SDS011;8800;50.118;9.900;2023-02-28T07:29:11;9.60;;;3.90;;
17365;SDS011;8800;50.118;9.900;2023-02-28T07:31:37;9.48;;;4.68;;
17365;SDS011;8800;50.118;9.900;2023-02-28T07:34:03;7.15;;;4.07;;
17365;SDS011;8800;50.118;9.900;2023-02-28T07:36:30;7.10;;;3.72;;
17365;SDS011;8800;50.118;9.900;2023-02-28T07:38:56;9.38;;;3.80;;
17365;SDS011;8800;50.118;9.900;2023-02-28T07:41:24;10.48;;;3.88;;
17365;SDS011;8800;50.118;9.900;2023-02-28T07:43:53;10.02;;;4.18;;
17365;SDS011;8800;50.118;9.900;2023-02-28T07:46:21;10.20;;;4.55;;
17365;SDS011;8800;50.118;9.900;2023-02-28T07:48:47;9.07;;;4.07;;
17365;SDS011;8800;50.118;9.900;2023-02-28T07:51:14;10.80;;;4.22;;
17365;SDS011;8800;50.118;9.900;2023-02-28T07:53:41;10.55;;;4.00;;
17365;SDS011;8800;50.118;9.900;2023-02-28T07:56:07;7.40;;;4.20;;
17365;SDS011;8800;50.118;9.900;2023-02-28T07:58:33;10.65;;;4.40;;
17365;SDS011;8800;50.118;9.900;2023-02-28T08:01:04;10.15;;;4.60;;
17365;SDS011;8800;50.118;9.900;2023-02-28T08:03:32;10.45;;;4.22;;
17365;SDS011;8800;50.118;9.900;2023-02-28T08:05:58;9.70;;;4.30;;
17365;SDS011;8800;50.118;9.900;2023-02-28T08:08:25;10.23;;;4.53;;
17365;SDS011;8800;50.118;9.900;2023-02-28T08:10:54;9.18;;;4.72;;
17365;SDS011;8800;50.118;9.900;2023-02-28T08:13:20;10.93;;;4.63;;
17365;SDS011;8800;50.118;9.900;2023-02-28T08:15:47;8.80;;;4.63;;
17365;SDS011;8800;50.118;9.900;2023-02-28T08:18:13;9.38;;;4.10;;
17365;SDS011;8800;50.118;9.900;2023-02-28T08:20:41;10.45;;;5.07;;
17365;SDS011;8800;50.118;9.900;2023-02-28T08:23:07;8.52;;;4.68;;
17365;SDS011;8800;50.118;9.900;2023-02-28T08:25:34;10.27;;;4.80;;
17365;SDS011;8800;50.118;9.900;2023-02-28T08:28:00;9.13;;;4.47;;
17365;SDS011;8800;50.118;9.900;2023-02-28T08:30:26;7.45;;;4.22;;
17365;SDS011;8800;50.118;9.900;2023-02-28T08:32:53;10.90;;;4.35;;
17365;SDS011;8800;50.118;9.900;2023-02-28T08:35:20;10.05;;;4.57;;
17365;SDS011;8800;50.118;9.900;2023-02-28T08:37:48;9.10;;;4.50;;
17365;SDS011;8800;50.118;9.900;2023-02-28T08:40:15;9.48;;;4.95;;
17365;SDS011;8800;50.118;9.900;2023-02-28T08:42:43;10.30;;;4.70;;
17365;SDS011;8800;50.118;9.900;2023-02-28T08:45:10;9.45;;;4.85;;
17365;SDS011;8800;50.118;9.900;2023-02-28T08:47:36;8.68;;;4.38;;
17365;SDS011;8800;50.118;9.900;2023-02-28T08:50:03;9.77;;;4.78;;
17365;SDS011;8800;50.118;9.900;2023-02-28T08:52:29;9.13;;;4.78;;
17365;SDS011;8800;50.118;9.900;2023-02-28T08:54:57;8.63;;;4.50;;
17365;SDS011;8800;50.118;9.900;2023-02-28T08:57:23;9.30;;;4.18;;
17365;SDS011;8800;50.118;9.900;2023-02-28T08:59:51;9.30;;;4.38;;
17365;SDS011;8800;50.118;9.900;2023-02-28T09:02:17;11.40;;;4.25;;
17365;SDS011;8800;50.118;9.900;2023-02-28T09:04:44;10.52;;;5.10;;
17365;SDS011;8800;50.118;9.900;2023-02-28T09:07:11;7.68;;;4.50;;
17365;SDS011;8800;50.118;9.900;2023-02-28T09:09:37;8.18;;;3.95;;
17365;SDS011;8800;50.118;9.900;2023-02-28T09:12:20;8.50;;;4.30;;
17365;SDS011;8800;50.118;9.900;2023-02-28T09:14:47;9.60;;;4.28;;
17365;SDS011;8800;50.118;9.900;2023-02-28T09:17:13;8.43;;;4.50;;
17365;SDS011;8800;50.118;9.900;2023-02-28T09:19:40;8.23;;;3.92;;
17365;SDS011;8800;50.118;9.900;2023-02-28T09:22:06;10.35;;;4.47;;
17365;SDS011;8800;50.118;9.900;2023-02-28T09:24:32;8.10;;;4.22;;
17365;SDS011;8800;50.118;9.900;2023-02-28T09:26:59;10.38;;;4.85;;
17365;SDS011;8800;50.118;9.900;2023-02-28T09:29:26;8.93;;;3.80;;
17365;SDS011;8800;50.118;9.900;2023-02-28T09:31:53;8.75;;;4.30;;
17365;SDS011;8800;50.118;9.900;2023-02-28T09:34:19;9.27;;;4.43;;
17365;SDS011;8800;50.118;9.900;2023-02-28T09:36:46;10.57;;;4.47;;
17365;SDS011;8800;50.118;9.900;2023-02-28T09:39:13;8.95;;;4.68;;
17365;SDS011;8800;50.118;9.900;2023-02-28T09:41:41;8.45;;;4.43;;
17365;SDS011;8800;50.118;9.900;2023-02-28T09:44:13;10.93;;;4.28;;
17365;SDS011;8800;50.118;9.900;2023-02-28T09:46:44;8.15;;;4.55;;
17365;SDS011;8800;50.118;9.900;2023-02-28T09:49:13;8.50;;;4.88;;
17365;SDS011;8800;50.118;9.900;2023-02-28T09:51:43;13.93;;;5.05;;
17365;SDS011;8800;50.118;9.900;2023-02-28T09:54:13;8.63;;;4.82;;
17365;SDS011;8800;50.118;9.900;2023-02-28T09:56:44;7.72;;;4.10;;
17365;SDS011;8800;50.118;9.900;2023-02-28T09:59:13;10.13;;;4.25;;
17365;SDS011;8800;50.118;9.900;2023-02-28T10:01:44;10.82;;;4.07;;
17365;SDS011;8800;50.118;9.900;2023-02-28T10:04:13;6.88;;;4.07;;
17365;SDS011;8800;50.118;9.900;2023-02-28T10:06:43;6.15;;;3.92;;
17365;SDS011;8800;50.118;9.900;2023-02-28T10:09:11;9.85;;;4.03;;
17365;SDS011;8800;50.118;9.900;2023-02-28T10:11:39;7.25;;;3.90;;
17365;SDS011;8800;50.118;9.900;2023-02-28T10:14:06;7.50;;;3.85;;
17365;SDS011;8800;50.118;9.900;2023-02-28T10:16:38;5.72;;;3.42;;
17365;SDS011;8800;50.118;9.900;2023-02-28T10:19:09;7.30;;;3.78;;
17365;SDS011;8800;50.118;9.900;2023-02-28T10:21:41;6.38;;;3.65;;
17365;SDS011;8800;50.118;9.900;2023-02-28T10:24:13;9.13;;;3.80;;
17365;SDS011;8800;50.118;9.900;2023-02-28T10:26:43;6.95;;;4.15;;
17365;SDS011;8800;50.118;9.900;2023-02-28T10:29:11;7.28;;;4.03;;
17365;SDS011;8800;50.118;9.900;2023-02-28T10:31:37;7.03;;;3.70;;
17365;SDS011;8800;50.118;9.900;2023-02-28T10:34:04;9.13;;;3.85;;
17365;SDS011;8800;50.118;9.900;2023-02-28T10:36:32;10.95;;;4.70;;
17365;SDS011;8800;50.118;9.900;2023-02-28T10:38:59;6.55;;;3.75;;
17365;SDS011;8800;50.118;9.900;2023-02-28T10:41:29;8.45;;;4.20;;
17365;SDS011;8800;50.118;9.900;2023-02-28T10:44:16;8.02;;;4.15;;
17365;SDS011;8800;50.118;9.900;2023-02-28T10:46:44;7.55;;;3.75;;
17365;SDS011;8800;50.118;9.900;2023-02-28T10:49:14;8.30;;;3.53;;
17365;SDS011;8800;50.118;9.900;2023-02-28T10:51:44;7.72;;;4.07;;
17365;SDS011;8800;50.118;9.900;2023-02-28T10:54:14;7.28;;;3.83;;
17365;SDS011;8800;50.118;9.900;2023-02-28T10:56:41;7.85;;;3.72;;
17365;SDS011;8800;50.118;9.900;2023-02-28T10:59:22;7.55;;;3.20;;
17365;SDS011;8800;50.118;9.900;2023-02-28T11:01:50;7.78;;;3.60;;
17365;SDS011;8800;50.118;9.900;2023-02-28T11:04:19;7.97;;;3.95;;
17365;SDS011;8800;50.118;9.900;2023-02-28T11:06:48;7.38;;;3.83;;
17365;SDS011;8800;50.118;9.900;2023-02-28T11:09:22;7.43;;;3.72;;
17365;SDS011;8800;50.118;9.900;2023-02-28T11:11:50;8.05;;;3.80;;
17365;SDS011;8800;50.118;9.900;2023-02-28T11:14:18;7.38;;;4.03;;
17365;SDS011;8800;50.118;9.900;2023-02-28T11:16:45;7.82;;;3.97;;
17365;SDS011;8800;50.118;9.900;2023-02-28T11:19:16;5.82;;;3.60;;
17365;SDS011;8800;50.118;9.900;2023-02-28T11:21:46;7.32;;;4.13;;
17365;SDS011;8800;50.118;9.900;2023-02-28T11:24:16;7.32;;;3.63;;
17365;SDS011;8800;50.118;9.900;2023-02-28T11:26:46;10.63;;;4.10;;
17365;SDS011;8800;50.118;9.900;2023-02-28T11:29:18;8.48;;;3.92;;
17365;SDS011;8800;50.118;9.900;2023-02-28T11:31:55;7.60;;;4.20;;
17365;SDS011;8800;50.118;9.900;2023-02-28T11:34:27;7.60;;;3.83;;
17365;SDS011;8800;50.118;9.900;2023-02-28T11:36:54;7.25;;;4.25;;
17365;SDS011;8800;50.118;9.900;2023-02-28T11:39:23;8.07;;;3.83;;
17365;SDS011;8800;50.118;9.900;2023-02-28T11:41:57;7.18;;;3.50;;
17365;SDS011;8800;50.118;9.900;2023-02-28T11:44:30;9.02;;;3.95;;
17365;SDS011;8800;50.118;9.900;2023-02-28T11:47:00;6.00;;;3.60;;
17365;SDS011;8800;50.118;9.900;2023-02-28T11:49:32;6.38;;;3.63;;
17365;SDS011;8800;50.118;9.900;2023-02-28T11:52:00;8.90;;;3.80;;
17365;SDS011;8800;50.118;9.900;2023-02-28T11:57:15;6.75;;;3.67;;
17365;SDS011;8800;50.118;9.900;2023-02-28T11:59:49;8.95;;;4.25;;
17365;SDS011;8800;50.118;9.900;2023-02-28T12:02:24;6.10;;;3.67;;
17365;SDS011;8800;50.118;9.900;2023-02-28T12:04:57;7.03;;;3.70;;
17365;SDS011;8800;50.118;9.900;2023-02-28T12:07:26;7.03;;;3.72;;
17365;SDS011;8800;50.118;9.900;2023-02-28T12:09:58;7.40;;;3.70;;
17365;SDS011;8800;50.118;9.900;2023-02-28T12:12:37;7.75;;;3.80;;
17365;SDS011;8800;50.118;9.900;2023-02-28T12:15:16;7.05;;;3.88;;
17365;SDS011;8800;50.118;9.900;2023-02-28T12:17:49;7.68;;;3.70;;
17365;SDS011;8800;50.118;9.900;2023-02-28T12:20:18;7.60;;;3.58;;
17365;SDS011;8800;50.118;9.900;2023-02-28T12:22:50;9.88;;;4.20;;
17365;SDS011;8800;50.118;9.900;2023-02-28T12:28:07;9.23;;;4.30;;
17365;SDS011;8800;50.118;9.900;2023-02-28T12:30:35;9.73;;;4.32;;
17365;SDS011;8800;50.118;9.900;2023-02-28T12:33:03;6.55;;;3.95;;
17365;SDS011;8800;50.118;9.900;2023-02-28T12:35:32;8.70;;;4.43;;
17365;SDS011;8800;50.118;9.900;2023-02-28T12:38:01;6.80;;;3.90;;
17365;SDS011;8800;50.118;9.900;2023-02-28T12:40:32;7.38;;;4.00;;
17365;SDS011;8800;50.118;9.900;2023-02-28T12:43:01;6.57;;;3.80;;
17365;SDS011;8800;50.118;9.900;2023-02-28T12:45:35;7.35;;;3.85;;
17365;SDS011;8800;50.118;9.900;2023-02-28T12:48:05;8.23;;;3.85;;
17365;SDS011;8800;50.118;9.900;2023-02-28T12:50:32;6.70;;;3.55;;
17365;SDS011;8800;50.118;9.900;2023-02-28T12:53:00;8.75;;;4.00;;
17365;SDS011;8800;50.118;9.900;2023-02-28T12:55:30;7.25;;;4.10;;
17365;SDS011;8800;50.118;9.900;2023-02-28T12:58:01;6.15;;;3.58;;
17365;SDS011;8800;50.118;9.900;2023-02-28T13:00:32;7.22;;;3.78;;
17365;SDS011;8800;50.118;9.900;2023-02-28T13:05:44;6.22;;;3.63;;
17365;SDS011;8800;50.118;9.900;2023-02-28T13:08:25;6.20;;;3.58;;
17365;SDS011;8800;50.118;9.900;2023-02-28T13:10:56;8.43;;;4.20;;
17365;SDS011;8800;50.118;9.900;2023-02-28T13:13:23;6.25;;;3.63;;
17365;SDS011;8800;50.118;9.900;2023-02-28T13:15:59;5.80;;;3.70;;
17365;SDS011;8800;50.118;9.900;2023-02-28T13:18:30;6.30;;;4.00;;
17365;SDS011;8800;50.118;9.900;2023-02-28T13:20:57;5.38;;;3.75;;
17365;SDS011;8800;50.118;9.900;2023-02-28T13:23:36;6.00;;;4.00;;
17365;SDS011;8800;50.118;9.900;2023-02-28T13:26:03;4.97;;;3.70;;
17365;SDS011;8800;50.118;9.900;2023-02-28T13:31:16;8.88;;;4.50;;
17365;SDS011;8800;50.118;9.900;2023-02-28T13:36:26;6.20;;;4.43;;
17365;SDS011;8800;50.118;9.900;2023-02-28T13:38:54;7.53;;;4.75;;
17365;SDS011;8800;50.118;9.900;2023-02-28T13:44:21;7.55;;;4.50;;
17365;SDS011;8800;50.118;9.900;2023-02-28T13:49:37;5.63;;;4.40;;
17365;SDS011;8800;50.118;9.900;2023-02-28T13:52:06;6.95;;;3.78;;
17365;SDS011;8800;50.118;9.900;2023-02-28T13:54:40;5.47;;;4.13;;
17365;SDS011;8800;50.118;9.900;2023-02-28T13:57:13;5.18;;;4.22;;
17365;SDS011;8800;50.118;9.900;2023-02-28T13:59:48;5.97;;;4.05;;
17365;SDS011;8800;50.118;9.900;2023-02-28T14:02:33;5.40;;;3.70;;
17365;SDS011;8800;50.118;9.900;2023-02-28T14:05:06;5.78;;;4.20;;
17365;SDS011;8800;50.118;9.900;2023-02-28T14:07:38;7.78;;;4.93;;
17365;SDS011;8800;50.118;9.900;2023-02-28T14:10:07;7.13;;;4.20;;
17365;SDS011;8800;50.118;9.900;2023-02-28T14:12:54;6.25;;;4.20;;
17365;SDS011;8800;50.118;9.900;2023-02-28T14:18:11;5.60;;;4.20;;
17365;SDS011;8800;50.118;9.900;2023-02-28T14:20:41;6.32;;;4.32;;
17365;SDS011;8800;50.118;9.900;2023-02-28T14:23:10;6.70;;;4.50;;
17365;SDS011;8800;50.118;9.900;2023-02-28T14:25:39;7.07;;;4.70;;
17365;SDS011;8800;50.118;9.900;2023-02-28T14:28:11;7.35;;;4.43;;
17365;SDS011;8800;50.118;9.900;2023-02-28T14:30:42;7.03;;;4.70;;
17365;SDS011;8800;50.118;9.900;2023-02-28T14:33:18;6.43;;;4.03;;
17365;SDS011;8800;50.118;9.900;2023-02-28T14:38:33;7.53;;;4.82;;
17365;SDS011;8800;50.118;9.900;2023-02-28T14:41:02;6.30;;;4.70;;
17365;SDS011;8800;50.118;9.900;2023-02-28T14:43:31;7.03;;;4.72;;
17365;SDS011;8800;50.118;9.900;2023-02-28T14:45:58;5.32;;;4.38;;
17365;SDS011;8800;50.118;9.900;2023-02-28T14:48:25;7.10;;;4.10;;
17365;SDS011;8800;50.118;9.900;2023-02-28T14:50:52;7.18;;;4.40;;
17365;SDS011;8800;50.118;9.900;2023-02-28T14:53:20;7.05;;;4.47;;
17365;SDS011;8800;50.118;9.900;2023-02-28T14:55:48;6.22;;;4.65;;
17365;SDS011;8800;50.118;9.900;2023-02-28T14:58:22;6.43;;;4.53;;
17365;SDS011;8800;50.118;9.900;2023-02-28T15:00:49;5.72;;;4.18;;
17365;SDS011;8800;50.118;9.900;2023-02-28T15:03:18;6.55;;;4.13;;
17365;SDS011;8800;50.118;9.900;2023-02-28T15:05:51;8.93;;;4.82;;
17365;SDS011;8800;50.118;9.900;2023-02-28T15:08:17;5.82;;;4.35;;
17365;SDS011;8800;50.118;9.900;2023-02-28T15:10:45;6.13;;;4.60;;
17365;SDS011;8800;50.118;9.900;2023-02-28T15:13:13;7.25;;;4.72;;
17365;SDS011;8800;50.118;9.900;2023-02-28T15:15:45;8.35;;;4.95;;
17365;SDS011;8800;50.118;9.900;2023-02-28T15:18:19;7.32;;;5.05;;
17365;SDS011;8800;50.118;9.900;2023-02-28T15:20:47;7.55;;;4.30;;
17365;SDS011;8800;50.118;9.900;2023-02-28T15:23:14;9.18;;;5.40;;
17365;SDS011;8800;50.118;9.900;2023-02-28T15:25:41;8.60;;;5.35;;
17365;SDS011;8800;50.118;9.900;2023-02-28T15:28:10;7.32;;;4.88;;
17365;SDS011;8800;50.118;9.900;2023-02-28T15:30:49;7.18;;;4.65;;
17365;SDS011;8800;50.118;9.900;2023-02-28T15:33:20;7.18;;;4.35;;
17365;SDS011;8800;50.118;9.900;2023-02-28T15:35:47;7.10;;;4.55;;
17365;SDS011;8800;50.118;9.900;2023-02-28T15:38:14;7.72;;;4.63;;
17365;SDS011;8800;50.118;9.900;2023-02-28T15:40:42;8.95;;;4.70;;
17365;SDS011;8800;50.118;9.900;2023-02-28T15:43:13;7.53;;;4.40;;
17365;SDS011;8800;50.118;9.900;2023-02-28T15:45:44;8.45;;;4.43;;
17365;SDS011;8800;50.118;9.900;2023-02-28T15:48:16;8.20;;;4.82;;